createdAt,value
2022-11-29T00:00:10.884Z,305.80
2022-11-29T00:02:39.524Z,329.63
2022-11-29T00:05:09.578Z,262.88
2022-11-29T00:07:38.334Z,187.45
2022-11-29T00:10:11.110Z,183.27
2022-11-29T00:12:39.854Z,165.20
2022-11-29T00:15:09.798Z,291.48
2022-11-29T00:17:38.375Z,193.18
2022-11-29T00:20:10.722Z,195.07
2022-11-29T00:22:39.891Z,231.88
2022-11-29T00:25:11.108Z,190.75
2022-11-29T00:27:39.744Z,217.43
2022-11-29T00:30:12.095Z,136.40
2022-11-29T00:32:40.713Z,138.32
2022-11-29T00:35:10.251Z,77.68
2022-11-29T00:37:39.147Z,99.40
2022-11-29T00:40:11.411Z,90.25
2022-11-29T00:42:40.015Z,108.72
2022-11-29T00:45:10.936Z,76.95
2022-11-29T00:47:39.585Z,83.68
2022-11-29T00:50:09.927Z,58.42
2022-11-29T00:52:38.545Z,66.50
2022-11-29T00:55:10.808Z,70.47
2022-11-29T00:57:39.372Z,69.15
2022-11-29T01:00:10.419Z,70.55
2022-11-29T01:02:39.201Z,59.87
2022-11-29T01:05:08.774Z,63.33
2022-11-29T01:07:37.415Z,66.70
2022-11-29T01:10:08.567Z,82.60
2022-11-29T01:12:40.809Z,69.93
2022-11-29T01:15:11.908Z,65.57
2022-11-29T01:17:42.184Z,62.73
2022-11-29T01:20:13.792Z,67.40
2022-11-29T01:22:43.265Z,63.00
2022-11-29T01:25:14.525Z,53.13
2022-11-29T01:27:45.080Z,80.13
2022-11-29T01:30:16.760Z,79.10
2022-11-29T01:32:45.353Z,76.40
2022-11-29T01:35:13.903Z,74.13
2022-11-29T01:37:42.584Z,84.60
2022-11-29T01:40:13.298Z,114.68
2022-11-29T01:42:43.806Z,123.30
2022-11-29T01:45:25.591Z,158.55
2022-11-29T01:47:58.416Z,211.70
2022-11-29T01:50:27.295Z,138.13
2022-11-29T01:52:55.926Z,203.93
2022-11-29T01:55:24.936Z,172.82
2022-11-29T01:57:55.829Z,252.95
2022-11-29T02:00:24.735Z,283.42
2022-11-29T02:02:58.780Z,235.50
2022-11-29T02:05:28.119Z,380.63
2022-11-29T02:08:00.519Z,564.63
2022-11-29T02:10:45.804Z,401.77
2022-11-29T02:13:29.762Z,464.90
2022-11-29T02:16:09.599Z,414.08
2022-11-29T02:18:52.083Z,346.00
2022-11-29T02:21:41.514Z,459.23
2022-11-29T02:24:34.900Z,572.75
2022-11-29T02:27:47.749Z,623.83
2022-11-29T02:30:48.157Z,658.58
2022-11-29T02:33:57.480Z,390.55
2022-11-29T02:37:11.390Z,394.48
2022-11-29T02:40:29.408Z,273.23
2022-11-29T02:43:43.654Z,194.13
2022-11-29T02:46:40.819Z,236.38
2022-11-29T02:49:24.117Z,228.80
2022-11-29T02:52:00.617Z,198.27
2022-11-29T02:54:38.687Z,358.58
2022-11-29T02:57:20.999Z,484.40
2022-11-29T03:00:00.106Z,221.98
2022-11-29T03:02:36.587Z,211.57
2022-11-29T03:05:20.551Z,296.83
2022-11-29T03:08:00.179Z,382.17
2022-11-29T03:10:40.239Z,251.70
2022-11-29T03:13:21.396Z,241.20
2022-11-29T03:15:59.638Z,207.30
2022-11-29T03:18:38.823Z,262.92
2022-11-29T03:21:20.687Z,295.00
2022-11-29T03:23:52.329Z,226.52
2022-11-29T03:26:28.071Z,231.82
2022-11-29T03:29:06.663Z,397.73
2022-11-29T03:31:41.337Z,345.38
2022-11-29T03:34:21.779Z,331.98
2022-11-29T03:36:59.695Z,263.25
2022-11-29T03:39:46.197Z,301.58
2022-11-29T03:42:23.801Z,241.63
2022-11-29T03:45:01.207Z,334.25
2022-11-29T03:47:36.666Z,179.52
2022-11-29T03:50:12.821Z,261.85
2022-11-29T03:52:50.923Z,217.30
2022-11-29T03:55:34.617Z,302.42
2022-11-29T03:58:31.550Z,285.58
2022-11-29T04:01:38.980Z,280.85
2022-11-29T04:04:37.979Z,460.20
2022-11-29T04:07:18.388Z,289.35
2022-11-29T04:10:14.620Z,288.58
2022-11-29T04:13:29.488Z,224.32
2022-11-29T04:16:25.372Z,277.65
2022-11-29T04:19:37.448Z,275.77
2022-11-29T04:23:00.300Z,248.13
2022-11-29T04:26:04.732Z,191.23
2022-11-29T04:29:07.130Z,319.67
2022-11-29T04:35:13.888Z,231.65
2022-11-29T04:38:24.129Z,277.20
2022-11-29T04:41:24.042Z,271.60
2022-11-29T04:44:27.782Z,244.52
2022-11-29T04:47:15.910Z,252.93
2022-11-29T04:50:09.482Z,181.57
2022-11-29T04:53:11.339Z,226.32
2022-11-29T04:55:50.931Z,177.93
2022-11-29T04:58:32.699Z,231.40
2022-11-29T05:01:09.050Z,233.50
2022-11-29T05:03:46.795Z,185.75
2022-11-29T05:06:26.791Z,258.08
2022-11-29T05:09:11.267Z,201.25
2022-11-29T05:11:58.668Z,190.82
2022-11-29T05:14:50.514Z,152.65
2022-11-29T05:17:43.811Z,250.43
2022-11-29T05:20:30.485Z,208.68
2022-11-29T05:23:19.497Z,227.77
2022-11-29T05:25:57.910Z,162.43
2022-11-29T05:28:35.067Z,188.55
2022-11-29T05:31:35.353Z,182.98
2022-11-29T05:34:46.140Z,165.90
2022-11-29T05:37:28.411Z,254.00
2022-11-29T05:40:30.411Z,160.85
2022-11-29T05:43:32.222Z,190.88
2022-11-29T05:46:12.106Z,211.05
2022-11-29T05:48:48.924Z,226.45
2022-11-29T05:51:23.566Z,240.82
2022-11-29T05:54:05.585Z,150.88
2022-11-29T05:59:19.979Z,129.25
2022-11-29T06:02:03.473Z,160.25
2022-11-29T06:04:56.612Z,194.05
2022-11-29T06:07:34.855Z,178.50
2022-11-29T06:10:08.104Z,180.23
2022-11-29T06:12:37.807Z,182.85
2022-11-29T06:16:04.716Z,174.38
2022-11-29T06:19:23.195Z,148.50
2022-11-29T06:22:05.183Z,165.40
2022-11-29T06:24:52.026Z,195.07
2022-11-29T06:27:42.280Z,160.32
2022-11-29T06:30:15.353Z,131.93
2022-11-29T06:32:53.775Z,200.40
2022-11-29T06:35:40.431Z,207.55
2022-11-29T06:38:18.583Z,223.90
2022-11-29T06:40:48.183Z,142.00
2022-11-29T06:43:18.612Z,129.52
2022-11-29T06:45:53.408Z,256.00
2022-11-29T06:48:27.096Z,236.85
2022-11-29T06:51:08.770Z,167.32
2022-11-29T06:53:49.911Z,190.55
2022-11-29T06:56:27.456Z,132.67
2022-11-29T06:59:08.429Z,167.52
2022-11-29T07:01:44.610Z,154.63
2022-11-29T07:04:46.360Z,109.65
2022-11-29T07:07:22.002Z,136.90
2022-11-29T07:09:56.398Z,96.25
2022-11-29T07:12:26.368Z,120.90
2022-11-29T07:14:56.211Z,153.00
2022-11-29T07:17:33.555Z,165.93
2022-11-29T07:20:11.792Z,106.55
2022-11-29T07:23:02.065Z,177.88
2022-11-29T07:25:44.926Z,175.35
2022-11-29T07:28:31.355Z,171.45
2022-11-29T07:31:11.118Z,179.38
2022-11-29T07:33:56.672Z,267.52
2022-11-29T07:36:38.701Z,221.70
2022-11-29T07:41:57.411Z,162.90
2022-11-29T07:44:35.193Z,148.15
2022-11-29T07:47:03.883Z,189.13
2022-11-29T07:49:32.601Z,185.90
2022-11-29T07:52:01.272Z,334.52
2022-11-29T07:54:32.377Z,130.32
2022-11-29T07:57:01.066Z,178.20
2022-11-29T07:59:29.753Z,155.13
2022-11-29T08:01:58.700Z,244.35
2022-11-29T08:04:27.619Z,171.98
2022-11-29T08:06:59.029Z,199.13
2022-11-29T08:09:27.966Z,139.18
2022-11-29T08:11:58.509Z,152.88
2022-11-29T08:14:27.387Z,196.65
2022-11-29T08:16:56.042Z,219.80
2022-11-29T08:19:24.671Z,122.40
2022-11-29T08:21:53.343Z,209.95
2022-11-29T08:24:22.143Z,83.40
2022-11-29T08:26:50.949Z,134.55
2022-11-29T08:29:21.980Z,112.63
2022-11-29T08:31:53.852Z,178.33
2022-11-29T08:36:51.673Z,96.40
2022-11-29T08:39:20.342Z,150.63
2022-11-29T08:41:50.244Z,89.35
2022-11-29T08:44:20.864Z,82.93
2022-11-29T08:47:02.619Z,175.43
2022-11-29T08:49:31.268Z,94.22
2022-11-29T08:52:12.995Z,74.85
2022-11-29T08:54:41.678Z,98.57
2022-11-29T08:57:38.519Z,82.38
2022-11-29T09:00:01.054Z,102.57
2022-11-29T09:02:29.807Z,102.10
2022-11-29T09:04:58.555Z,73.90
2022-11-29T09:07:27.315Z,70.38
2022-11-29T09:09:55.935Z,71.50
2022-11-29T09:12:24.609Z,84.85
2022-11-29T09:14:53.239Z,104.03
2022-11-29T09:17:23.851Z,85.18
2022-11-29T09:19:52.524Z,129.90
2022-11-29T09:22:21.229Z,91.75
2022-11-29T09:24:49.870Z,59.60
2022-11-29T09:27:18.544Z,70.68
2022-11-29T09:29:47.120Z,139.07
2022-11-29T09:32:16.000Z,80.70
2022-11-29T09:34:46.903Z,79.82
2022-11-29T09:37:15.734Z,64.20
2022-11-29T09:39:44.373Z,56.10
2022-11-29T09:42:38.472Z,71.28
2022-11-29T09:45:12.168Z,41.92
2022-11-29T09:48:30.429Z,47.05
2022-11-29T09:51:14.916Z,58.30
2022-11-29T09:54:02.381Z,66.70
2022-11-29T09:56:38.775Z,74.38
2022-11-29T09:59:14.921Z,65.63
2022-11-29T10:01:49.613Z,83.63
2022-11-29T10:04:23.038Z,87.22
2022-11-29T10:07:02.530Z,97.45
2022-11-29T10:09:37.755Z,72.32
2022-11-29T10:12:16.337Z,94.55
2022-11-29T10:14:52.396Z,95.72
2022-11-29T10:17:34.156Z,124.90
2022-11-29T10:20:12.379Z,182.55
2022-11-29T10:22:52.828Z,235.07
2022-11-29T10:25:26.916Z,123.65
2022-11-29T10:27:56.049Z,132.15
2022-11-29T10:30:25.073Z,126.35
2022-11-29T10:32:59.502Z,123.25
2022-11-29T10:35:28.892Z,307.70
2022-11-29T10:40:59.028Z,68.72
2022-11-29T10:43:28.277Z,70.53
2022-11-29T10:45:58.114Z,53.53
2022-11-29T10:48:31.881Z,64.65
2022-11-29T10:51:01.514Z,55.55
2022-11-29T10:53:37.411Z,72.13
2022-11-29T10:56:10.190Z,55.28
2022-11-29T10:58:54.178Z,61.50
2022-11-29T11:01:23.542Z,49.90
2022-11-29T11:03:54.942Z,40.92
2022-11-29T11:06:26.995Z,35.42
2022-11-29T11:09:13.809Z,42.55
2022-11-29T11:11:44.775Z,44.17
2022-11-29T11:14:23.084Z,49.77
2022-11-29T11:16:52.129Z,47.05
2022-11-29T11:19:30.848Z,46.83
2022-11-29T11:22:01.807Z,55.35
2022-11-29T11:24:34.862Z,45.77
2022-11-29T11:27:03.893Z,50.03
2022-11-29T11:29:38.945Z,46.28
2022-11-29T11:32:18.248Z,43.03
2022-11-29T11:34:54.108Z,54.35
2022-11-29T11:37:26.464Z,50.30
2022-11-29T11:39:59.356Z,44.00
2022-11-29T11:42:42.099Z,53.35
2022-11-29T11:45:33.407Z,42.55
2022-11-29T11:48:07.074Z,51.67
2022-11-29T11:50:42.432Z,51.53
2022-11-29T11:53:23.711Z,54.45
2022-11-29T11:56:07.400Z,46.83
2022-11-29T11:58:39.508Z,33.25
2022-11-29T12:01:24.602Z,38.95
2022-11-29T12:04:03.149Z,46.20
2022-11-29T12:06:46.625Z,46.50
2022-11-29T12:09:28.874Z,37.28
2022-11-29T12:12:12.552Z,40.92
2022-11-29T12:14:53.882Z,36.30
2022-11-29T12:17:33.123Z,36.53
2022-11-29T12:20:21.633Z,39.17
2022-11-29T12:23:15.069Z,35.17
2022-11-29T12:25:50.783Z,43.97
2022-11-29T12:28:23.743Z,40.90
2022-11-29T12:31:04.688Z,40.55
2022-11-29T12:33:43.956Z,38.15
2022-11-29T12:36:31.986Z,33.25
2022-11-29T12:39:22.719Z,34.90
2022-11-29T12:42:00.332Z,37.20
2022-11-29T12:44:53.689Z,34.90
2022-11-29T12:47:38.698Z,35.90
2022-11-29T12:50:27.424Z,35.33
2022-11-29T12:53:13.345Z,33.33
2022-11-29T12:55:54.702Z,35.92
2022-11-29T12:58:35.866Z,35.58
2022-11-29T13:01:16.901Z,41.83
2022-11-29T13:03:58.437Z,44.67
2022-11-29T13:06:35.811Z,44.70
2022-11-29T13:09:50.414Z,40.03
2022-11-29T13:12:27.178Z,41.22
2022-11-29T13:15:04.445Z,45.58
2022-11-29T13:17:42.752Z,43.50
2022-11-29T13:20:32.059Z,42.30
2022-11-29T13:23:15.244Z,40.67
2022-11-29T13:25:47.102Z,48.28
2022-11-29T13:30:52.345Z,42.78
2022-11-29T13:33:29.499Z,43.58
2022-11-29T13:36:09.691Z,43.25
2022-11-29T13:38:46.461Z,45.47
2022-11-29T13:41:28.776Z,47.40
2022-11-29T13:44:09.147Z,46.83
2022-11-29T13:46:47.389Z,43.40
2022-11-29T13:49:53.151Z,40.83
2022-11-29T13:52:41.097Z,44.75
2022-11-29T13:55:31.038Z,44.28
2022-11-29T13:58:16.728Z,45.80
2022-11-29T14:04:41.011Z,42.95
2022-11-29T14:07:13.520Z,43.42
2022-11-29T14:09:52.582Z,39.20
2022-11-29T14:12:37.695Z,38.38
2022-11-29T14:15:27.669Z,42.55
2022-11-29T14:17:59.252Z,79.90
2022-11-29T14:21:01.032Z,48.90
2022-11-29T14:23:42.008Z,39.35
2022-11-29T14:26:29.882Z,37.60
2022-11-29T14:28:59.923Z,37.90
2022-11-29T14:31:58.634Z,40.95
2022-11-29T14:34:48.758Z,38.65
2022-11-29T14:37:45.246Z,38.30
2022-11-29T14:40:27.496Z,40.00
2022-11-29T14:42:56.416Z,37.63
2022-11-29T14:45:29.502Z,39.80
2022-11-29T14:47:58.895Z,41.47
2022-11-29T14:50:34.721Z,37.00
2022-11-29T14:53:06.339Z,45.08
2022-11-29T14:55:38.323Z,50.15
2022-11-29T14:58:22.998Z,49.67
2022-11-29T15:01:09.725Z,54.92
2022-11-29T15:03:48.140Z,51.17
2022-11-29T15:06:28.351Z,43.90
2022-11-29T15:09:05.213Z,45.55
2022-11-29T15:11:46.615Z,46.78
2022-11-29T15:14:25.259Z,41.38
2022-11-29T15:17:19.019Z,47.33
2022-11-29T15:20:22.623Z,53.70
2022-11-29T15:22:54.156Z,53.78
2022-11-29T15:25:27.799Z,55.28
2022-11-29T15:27:58.809Z,54.88
2022-11-29T15:30:38.484Z,62.80
2022-11-29T15:33:09.524Z,62.35
2022-11-29T15:35:38.727Z,75.03
2022-11-29T15:38:07.325Z,85.13
2022-11-29T15:40:44.389Z,85.53
2022-11-29T15:43:21.852Z,107.82
2022-11-29T15:45:52.015Z,153.57
2022-11-29T15:48:24.295Z,194.20
2022-11-29T15:51:06.034Z,130.45
2022-11-29T15:53:41.088Z,186.18
2022-11-29T15:56:18.387Z,249.80
2022-11-29T15:58:49.442Z,213.50
2022-11-29T16:01:22.818Z,247.77
2022-11-29T16:03:56.053Z,90.28
2022-11-29T16:06:33.081Z,301.55
2022-11-29T16:09:03.514Z,174.25
2022-11-29T16:11:34.199Z,131.73
2022-11-29T16:14:16.019Z,183.43
2022-11-29T16:16:47.528Z,229.15
2022-11-29T16:19:30.807Z,291.40
2022-11-29T16:22:16.743Z,279.27
2022-11-29T16:25:00.380Z,190.90
2022-11-29T16:27:35.396Z,270.58
2022-11-29T16:30:05.509Z,269.73
2022-11-29T16:32:37.395Z,136.75
2022-11-29T16:37:41.416Z,215.02
2022-11-29T16:40:24.070Z,175.20
2022-11-29T16:43:23.204Z,184.52
2022-11-29T16:46:35.535Z,164.90
2022-11-29T16:49:36.755Z,146.02
2022-11-29T16:52:24.803Z,169.70
2022-11-29T16:54:53.439Z,123.20
2022-11-29T16:57:22.794Z,107.05
2022-11-29T16:59:53.520Z,85.03
2022-11-29T17:02:22.176Z,82.93
2022-11-29T17:04:52.756Z,77.95
2022-11-29T17:07:28.178Z,137.00
2022-11-29T17:09:57.728Z,93.38
2022-11-29T17:12:26.393Z,86.28
2022-11-29T17:14:56.874Z,82.95
2022-11-29T17:17:25.539Z,77.95
2022-11-29T17:19:54.447Z,81.25
2022-11-29T17:22:23.089Z,85.07
2022-11-29T17:24:52.119Z,93.68
2022-11-29T17:27:20.901Z,78.70
2022-11-29T17:29:49.563Z,58.72
2022-11-29T17:32:27.059Z,54.38
2022-11-29T17:34:55.874Z,44.55
2022-11-29T17:37:24.442Z,77.25
2022-11-29T17:39:53.098Z,103.18
2022-11-29T17:42:21.886Z,89.32
2022-11-29T17:44:50.486Z,84.93
2022-11-29T17:47:21.056Z,103.18
2022-11-29T17:49:49.721Z,81.90
2022-11-29T17:52:18.343Z,83.85
2022-11-29T17:54:46.992Z,83.50
2022-11-29T17:57:15.752Z,65.40
2022-11-29T17:59:44.462Z,54.15
2022-11-29T18:02:14.323Z,57.70
2022-11-29T18:04:44.879Z,60.35
2022-11-29T18:07:16.494Z,36.92
2022-11-29T18:09:46.249Z,38.17
2022-11-29T18:12:15.029Z,31.05
2022-11-29T18:14:43.654Z,44.28
2022-11-29T18:17:12.452Z,35.95
2022-11-29T18:19:41.596Z,35.63
2022-11-29T18:22:12.075Z,39.90
2022-11-29T18:24:43.504Z,41.38
2022-11-29T18:27:12.104Z,46.08
2022-11-29T18:29:40.773Z,66.85
2022-11-29T18:32:09.380Z,49.97
2022-11-29T18:34:37.968Z,44.08
2022-11-29T18:37:09.889Z,44.53
2022-11-29T18:39:44.762Z,49.95
2022-11-29T18:42:13.432Z,46.33
2022-11-29T18:44:42.003Z,50.25
2022-11-29T18:47:10.585Z,41.05
2022-11-29T18:49:39.159Z,33.17
2022-11-29T18:52:07.796Z,24.58
2022-11-29T18:54:36.396Z,21.65
2022-11-29T18:57:06.964Z,19.58
2022-11-29T18:59:35.603Z,23.00
2022-11-29T19:02:04.263Z,20.55
2022-11-29T19:04:32.898Z,21.05
2022-11-29T19:07:01.497Z,20.88
2022-11-29T19:09:30.087Z,21.45
2022-11-29T19:11:58.700Z,21.83
2022-11-29T19:14:29.895Z,21.30
2022-11-29T19:16:58.532Z,19.48
2022-11-29T19:19:27.707Z,20.00
2022-11-29T19:21:56.525Z,21.42
2022-11-29T19:24:25.219Z,23.75
2022-11-29T19:26:55.184Z,23.88
2022-11-29T19:29:23.840Z,18.42
2022-11-29T19:31:54.548Z,18.40
2022-11-29T19:34:23.200Z,19.92
2022-11-29T19:36:51.968Z,19.25
2022-11-29T19:41:46.494Z,20.25
2022-11-29T19:44:15.839Z,21.15
2022-11-29T19:46:47.970Z,19.48
2022-11-29T19:49:16.862Z,22.05
2022-11-29T19:51:45.798Z,22.90
2022-11-29T19:54:15.068Z,21.60
2022-11-29T19:56:45.624Z,19.67
2022-11-29T19:59:14.427Z,21.50
2022-11-29T20:01:43.385Z,20.23
2022-11-29T20:04:16.092Z,19.42
2022-11-29T20:06:45.732Z,20.52
2022-11-29T20:09:15.193Z,19.08
2022-11-29T20:11:45.799Z,19.42
2022-11-29T20:14:14.932Z,17.30
2022-11-29T20:16:44.039Z,19.35
2022-11-29T20:19:16.226Z,20.27
2022-11-29T20:21:48.112Z,19.88
2022-11-29T20:26:50.069Z,20.00
2022-11-29T20:29:21.245Z,21.75
2022-11-29T20:31:51.255Z,23.05
2022-11-29T20:34:21.533Z,21.08
2022-11-29T20:37:26.624Z,22.92
2022-11-29T20:40:01.268Z,21.50
2022-11-29T20:43:11.747Z,23.95
2022-11-29T20:45:41.242Z,23.05
2022-11-29T20:48:19.011Z,23.08
2022-11-29T20:50:55.204Z,23.92
2022-11-29T20:53:34.909Z,23.52
2022-11-29T20:56:04.102Z,25.13
2022-11-29T20:58:35.155Z,24.02
2022-11-29T21:01:05.430Z,26.07
2022-11-29T21:03:34.142Z,25.88
2022-11-29T21:06:05.046Z,24.33
2022-11-29T21:08:34.388Z,26.05
2022-11-29T21:11:08.403Z,27.08
2022-11-29T21:13:40.295Z,24.30
2022-11-29T21:18:41.328Z,28.10
2022-11-29T21:21:24.473Z,23.83
2022-11-29T21:24:07.737Z,27.52
2022-11-29T21:26:43.207Z,26.60
2022-11-29T21:29:20.426Z,28.05
2022-11-29T21:31:52.140Z,31.42
2022-11-29T21:34:21.005Z,27.00
2022-11-29T21:36:55.987Z,35.80
2022-11-29T21:39:34.959Z,33.70
2022-11-29T21:42:04.200Z,26.70
2022-11-29T21:44:34.714Z,30.38
2022-11-29T21:47:03.327Z,30.13
2022-11-29T21:49:34.381Z,29.63
2022-11-29T21:52:03.194Z,29.37
2022-11-29T21:54:31.815Z,32.50
2022-11-29T21:57:01.153Z,29.27
2022-11-29T21:59:29.778Z,28.52
2022-11-29T22:02:00.452Z,35.80
2022-11-29T22:04:29.504Z,39.60
2022-11-29T22:07:05.895Z,43.63
2022-11-29T22:09:34.510Z,50.45
2022-11-29T22:12:25.809Z,48.28
2022-11-29T22:14:52.221Z,46.53
2022-11-29T22:17:35.015Z,55.47
2022-11-29T22:20:03.597Z,56.78
2022-11-29T22:22:32.204Z,62.35
2022-11-29T22:25:00.866Z,53.67
2022-11-29T22:27:29.418Z,51.13
2022-11-29T22:29:58.048Z,49.85
2022-11-29T22:32:28.536Z,50.28
2022-11-29T22:34:57.143Z,48.75
2022-11-29T22:37:25.788Z,41.10
2022-11-29T22:39:54.435Z,42.65
2022-11-29T22:42:23.069Z,43.95
2022-11-29T22:44:51.642Z,49.85
2022-11-29T22:47:20.218Z,44.97
2022-11-29T22:49:50.804Z,42.10
2022-11-29T22:52:21.005Z,40.28
2022-11-29T22:54:49.779Z,45.05
2022-11-29T22:57:18.454Z,38.15
2022-11-29T22:59:47.082Z,40.58
2022-11-29T23:02:15.727Z,40.40
2022-11-29T23:04:44.436Z,40.72
2022-11-29T23:07:14.998Z,35.88
2022-11-29T23:09:43.593Z,38.28
2022-11-29T23:12:12.198Z,35.38
2022-11-29T23:14:40.775Z,40.85
2022-11-29T23:17:09.327Z,35.88
2022-11-29T23:19:37.932Z,32.42
2022-11-29T23:22:06.522Z,36.10
2022-11-29T23:24:38.413Z,36.58
2022-11-29T23:29:35.381Z,34.95
2022-11-29T23:32:04.053Z,33.38
2022-11-29T23:34:32.659Z,33.65
2022-11-29T23:37:01.272Z,36.47
2022-11-29T23:39:29.846Z,31.98
2022-11-29T23:42:00.380Z,33.30
2022-11-29T23:44:28.932Z,34.55
2022-11-29T23:46:57.580Z,37.10
2022-11-29T23:49:26.332Z,34.00
2022-11-29T23:51:54.895Z,33.17
2022-11-29T23:54:24.410Z,34.67
2022-11-29T23:56:53.042Z,33.45
2022-11-29T23:59:23.557Z,37.22
